createdAt,value
2018-02-13T00:01:47.682Z,2.42
2018-02-13T00:04:15.202Z,1.25
2018-02-13T00:06:43.619Z,1.98
2018-02-13T00:09:11.090Z,1.50
2018-02-13T00:11:38.594Z,2.28
2018-02-13T00:14:06.153Z,2.03
2018-02-13T00:16:33.627Z,1.80
2018-02-13T00:19:01.110Z,2.03
2018-02-13T00:21:28.610Z,2.10
2018-02-13T00:23:56.094Z,1.85
2018-02-13T00:26:23.591Z,1.92
2018-02-13T00:28:51.111Z,1.65
2018-02-13T00:31:18.600Z,1.58
2018-02-13T00:33:46.075Z,2.17
2018-02-13T00:36:13.565Z,1.90
2018-02-13T00:38:41.052Z,2.17
2018-02-13T00:41:08.528Z,1.80
2018-02-13T00:43:36.007Z,1.25
2018-02-13T00:46:03.514Z,1.23
2018-02-13T00:48:31.036Z,1.73
2018-02-13T00:50:58.513Z,1.42
2018-02-13T00:53:25.997Z,1.70
2018-02-13T00:55:53.478Z,1.60
2018-02-13T00:58:20.959Z,1.30
2018-02-13T01:00:48.456Z,1.87
2018-02-13T01:03:15.927Z,1.55
2018-02-13T01:05:43.426Z,1.92
2018-02-13T01:08:10.907Z,1.58
2018-02-13T01:10:38.399Z,1.85
2018-02-13T01:13:05.882Z,1.62
2018-02-13T01:15:33.362Z,1.70
2018-02-13T01:18:00.850Z,1.83
2018-02-13T01:20:28.341Z,1.45
2018-02-13T01:22:55.810Z,1.33
2018-02-13T01:25:23.314Z,1.70
2018-02-13T01:27:50.798Z,1.60
2018-02-13T01:30:18.288Z,1.85
2018-02-13T01:32:45.762Z,1.80
2018-02-13T01:35:13.255Z,2.20
2018-02-13T01:37:40.739Z,1.62
2018-02-13T01:40:08.216Z,1.92
2018-02-13T01:42:35.710Z,2.22
2018-02-13T01:45:03.195Z,1.75
2018-02-13T01:47:30.669Z,1.80
2018-02-13T01:49:58.149Z,2.10
2018-02-13T01:52:25.645Z,1.90
2018-02-13T01:54:53.113Z,2.08
2018-02-13T01:57:20.597Z,1.70
2018-02-13T01:59:48.115Z,1.92
2018-02-13T02:02:21.339Z,1.50
2018-02-13T02:04:48.826Z,2.03
2018-02-13T02:07:16.327Z,2.10
2018-02-13T02:09:43.801Z,1.83
2018-02-13T02:12:11.281Z,2.80
2018-02-13T02:14:38.748Z,1.65
2018-02-13T02:17:06.218Z,2.53
2018-02-13T02:19:33.814Z,2.25
2018-02-13T02:22:01.298Z,1.52
2018-02-13T02:24:28.762Z,2.22
2018-02-13T02:26:56.250Z,1.98
2018-02-13T02:29:23.770Z,1.55
2018-02-13T02:31:51.247Z,2.20
2018-02-13T02:34:18.727Z,1.67
2018-02-13T02:36:46.218Z,1.48
2018-02-13T02:39:13.696Z,1.83
2018-02-13T02:41:41.163Z,1.70
2018-02-13T02:44:08.637Z,1.65
2018-02-13T02:46:36.103Z,1.58
2018-02-13T02:49:03.592Z,1.58
2018-02-13T02:51:31.068Z,2.10
2018-02-13T02:53:58.562Z,1.62
2018-02-13T02:56:26.047Z,1.95
2018-02-13T02:58:53.515Z,1.77
2018-02-13T03:01:20.979Z,1.20
2018-02-13T03:03:48.454Z,1.55
2018-02-13T03:06:15.934Z,1.92
2018-02-13T03:08:43.426Z,1.30
2018-02-13T03:11:10.906Z,1.75
2018-02-13T03:13:38.404Z,1.90
2018-02-13T03:16:05.886Z,1.52
2018-02-13T03:18:33.363Z,1.92
2018-02-13T03:21:00.835Z,1.60
2018-02-13T03:23:28.314Z,1.05
2018-02-13T03:25:55.787Z,1.65
2018-02-13T03:28:23.263Z,1.92
2018-02-13T03:30:50.739Z,1.75
2018-02-13T03:33:18.202Z,1.48
2018-02-13T03:35:45.683Z,1.50
2018-02-13T03:38:13.183Z,2.17
2018-02-13T03:40:40.690Z,2.05
2018-02-13T03:43:08.168Z,1.48
2018-02-13T03:45:35.651Z,1.52
2018-02-13T03:48:03.130Z,1.42
2018-02-13T03:50:30.602Z,1.50
2018-02-13T03:52:58.074Z,1.90
2018-02-13T03:55:25.546Z,1.62
2018-02-13T03:57:53.003Z,1.42
2018-02-13T04:00:20.498Z,1.40
2018-02-13T04:02:47.976Z,1.95
2018-02-13T04:05:15.454Z,1.20
2018-02-13T04:07:42.931Z,1.27
2018-02-13T04:10:10.446Z,1.48
2018-02-13T04:12:37.919Z,1.65
2018-02-13T04:15:05.402Z,1.95
2018-02-13T04:17:32.907Z,1.80
2018-02-13T04:20:00.383Z,1.65
2018-02-13T04:22:27.867Z,1.50
2018-02-13T04:24:55.339Z,1.77
2018-02-13T04:27:22.810Z,1.52
2018-02-13T04:29:50.287Z,1.60
2018-02-13T04:32:17.759Z,2.00
2018-02-13T04:34:45.250Z,1.30
2018-02-13T04:37:12.744Z,1.55
2018-02-13T04:39:40.218Z,1.75
2018-02-13T04:42:07.702Z,1.55
2018-02-13T04:44:35.182Z,1.62
2018-02-13T04:47:02.677Z,1.12
2018-02-13T04:49:30.151Z,1.00
2018-02-13T04:51:57.647Z,1.08
2018-02-13T04:54:25.128Z,0.98
2018-02-13T04:56:52.611Z,1.45
2018-02-13T04:59:20.083Z,1.42
2018-02-13T05:01:47.567Z,1.00
2018-02-13T05:04:15.044Z,1.30
2018-02-13T05:06:42.539Z,0.80
2018-02-13T05:09:10.013Z,0.62
2018-02-13T05:11:37.495Z,0.90
2018-02-13T05:14:04.970Z,0.60
2018-02-13T05:16:32.441Z,0.80
2018-02-13T05:18:59.925Z,0.70
2018-02-13T05:21:27.411Z,0.50
2018-02-13T05:23:54.891Z,0.88
2018-02-13T05:26:22.392Z,0.75
2018-02-13T05:28:49.874Z,0.50
2018-02-13T05:31:17.358Z,0.40
2018-02-13T05:33:44.832Z,0.60
2018-02-13T05:36:12.323Z,0.32
2018-02-13T05:38:39.804Z,0.52
2018-02-13T05:41:07.278Z,0.70
2018-02-13T05:43:34.750Z,0.65
2018-02-13T05:46:02.248Z,0.57
2018-02-13T05:48:29.723Z,0.43
2018-02-13T05:50:57.237Z,0.43
2018-02-13T05:53:24.714Z,0.47
2018-02-13T05:55:52.203Z,0.52
2018-02-13T05:58:19.686Z,0.35
2018-02-13T06:00:47.146Z,0.40
2018-02-13T06:03:14.623Z,0.30
2018-02-13T06:05:42.102Z,0.30
2018-02-13T06:08:09.617Z,0.30
2018-02-13T06:10:37.136Z,0.50
2018-02-13T06:13:04.611Z,0.22
2018-02-13T06:15:32.094Z,0.32
2018-02-13T06:17:59.574Z,0.80
2018-02-13T06:20:27.050Z,0.80
2018-02-13T06:22:54.552Z,0.90
2018-02-13T06:25:22.029Z,1.00
2018-02-13T06:27:49.522Z,0.55
2018-02-13T06:30:16.998Z,0.85
2018-02-13T06:32:44.474Z,1.25
2018-02-13T06:35:11.956Z,2.05
2018-02-13T06:37:39.437Z,2.17
2018-02-13T06:40:06.947Z,2.33
2018-02-13T06:42:34.427Z,2.10
2018-02-13T06:45:01.914Z,1.80
2018-02-13T06:47:29.390Z,1.30
2018-02-13T06:49:56.860Z,1.27
2018-02-13T06:52:24.384Z,0.90
2018-02-13T06:54:51.854Z,1.10
2018-02-13T06:57:19.349Z,1.17
2018-02-13T06:59:46.822Z,1.48
2018-02-13T07:02:14.298Z,1.40
2018-02-13T07:04:41.783Z,1.85
2018-02-13T07:07:09.316Z,1.95
2018-02-13T07:09:36.809Z,1.98
2018-02-13T07:12:04.286Z,1.87
2018-02-13T07:14:31.762Z,1.55
2018-02-13T07:16:59.263Z,1.30
2018-02-13T07:19:26.749Z,1.67
2018-02-13T07:21:54.329Z,1.27
2018-02-13T07:24:21.815Z,1.23
2018-02-13T07:26:49.307Z,1.37
2018-02-13T07:29:16.784Z,1.10
2018-02-13T07:31:44.267Z,1.27
2018-02-13T07:34:11.738Z,0.90
2018-02-13T07:36:39.251Z,1.17
2018-02-13T07:39:07.859Z,1.15
2018-02-13T07:41:35.351Z,0.60
2018-02-13T07:44:02.833Z,0.90
2018-02-13T07:46:30.320Z,1.02
2018-02-13T07:48:57.813Z,0.88
2018-02-13T07:51:25.280Z,1.30
2018-02-13T07:53:52.763Z,1.05
2018-02-13T07:56:20.230Z,1.15
2018-02-13T07:58:47.708Z,1.17
2018-02-13T08:01:15.203Z,1.35
2018-02-13T08:03:42.755Z,1.55
2018-02-13T08:06:10.261Z,1.02
2018-02-13T08:08:37.823Z,1.30
2018-02-13T08:11:05.317Z,1.37
2018-02-13T08:13:32.799Z,1.80
2018-02-13T08:16:00.303Z,1.62
2018-02-13T08:18:27.843Z,1.67
2018-02-13T08:20:55.392Z,1.45
2018-02-13T08:23:22.918Z,1.67
2018-02-13T08:25:50.395Z,1.60
2018-02-13T08:28:17.953Z,1.90
2018-02-13T08:30:45.434Z,2.03
2018-02-13T08:33:12.906Z,1.60
2018-02-13T08:35:40.397Z,2.37
2018-02-13T08:38:07.926Z,1.80
2018-02-13T08:40:36.236Z,1.40
2018-02-13T08:43:03.723Z,1.25
2018-02-13T08:45:31.220Z,1.62
2018-02-13T08:47:58.710Z,1.80
2018-02-13T08:50:26.205Z,1.02
2018-02-13T08:52:53.674Z,1.58
2018-02-13T08:55:21.148Z,1.73
2018-02-13T08:57:48.628Z,1.90
2018-02-13T09:00:16.122Z,1.48
2018-02-13T09:02:43.598Z,1.30
2018-02-13T09:05:11.079Z,1.85
2018-02-13T09:07:38.572Z,1.50
2018-02-13T09:10:06.137Z,1.87
2018-02-13T09:12:33.616Z,1.37
2018-02-13T09:15:01.101Z,1.52
2018-02-13T09:17:28.590Z,1.55
2018-02-13T09:19:56.144Z,1.87
2018-02-13T09:22:23.622Z,2.37
2018-02-13T09:24:51.107Z,2.67
2018-02-13T09:27:18.583Z,0.98
2018-02-13T09:29:46.055Z,1.70
2018-02-13T09:32:13.553Z,0.65
2018-02-13T09:34:41.030Z,1.20
2018-02-13T09:37:08.503Z,0.95
2018-02-13T09:39:35.989Z,1.37
2018-02-13T09:42:03.526Z,1.65
2018-02-13T09:44:31.004Z,1.08
2018-02-13T09:46:58.500Z,1.15
2018-02-13T09:49:25.998Z,1.45
2018-02-13T09:51:53.492Z,1.10
2018-02-13T09:54:20.986Z,1.77
2018-02-13T09:56:48.579Z,1.60
2018-02-13T09:59:16.088Z,2.40
2018-02-13T10:01:43.654Z,2.17
2018-02-13T10:04:11.144Z,1.48
2018-02-13T10:06:38.649Z,2.08
2018-02-13T10:09:06.212Z,1.37
2018-02-13T10:11:33.855Z,1.30
2018-02-13T10:14:01.803Z,1.87
2018-02-13T10:16:29.349Z,1.77
2018-02-13T10:18:56.862Z,2.90
2018-02-13T10:21:24.366Z,2.00
2018-02-13T10:23:51.882Z,2.00
2018-02-13T10:26:19.613Z,2.25
2018-02-13T10:28:47.179Z,2.28
2018-02-13T10:31:14.753Z,2.75
2018-02-13T10:33:42.239Z,1.50
2018-02-13T10:36:09.710Z,3.10
2018-02-13T10:38:37.197Z,2.12
2018-02-13T10:41:04.674Z,2.17
2018-02-13T10:43:32.166Z,1.77
2018-02-13T10:46:00.502Z,2.20
2018-02-13T10:48:27.995Z,2.05
2018-02-13T10:50:55.570Z,2.70
2018-02-13T10:53:23.059Z,2.17
2018-02-13T10:55:50.542Z,2.67
2018-02-13T10:58:18.077Z,2.67
2018-02-13T11:00:51.085Z,2.90
2018-02-13T11:03:18.633Z,2.03
2018-02-13T11:05:46.324Z,2.90
2018-02-13T11:08:13.892Z,2.37
2018-02-13T11:10:41.554Z,2.15
2018-02-13T11:13:09.152Z,2.85
2018-02-13T11:15:36.737Z,5.37
2018-02-13T11:18:04.555Z,2.12
2018-02-13T11:20:32.035Z,3.47
2018-02-13T11:22:59.579Z,2.53
2018-02-13T11:25:27.095Z,3.65
2018-02-13T11:27:54.612Z,3.45
2018-02-13T11:30:22.131Z,2.55
2018-02-13T11:32:49.731Z,2.53
2018-02-13T11:35:17.264Z,2.92
2018-02-13T11:37:44.770Z,3.10
2018-02-13T11:40:12.280Z,2.22
2018-02-13T11:42:39.791Z,1.92
2018-02-13T11:45:07.416Z,2.45
2018-02-13T11:47:34.964Z,2.40
2018-02-13T11:50:02.435Z,2.58
2018-02-13T11:52:29.955Z,2.08
2018-02-13T11:54:57.464Z,1.85
2018-02-13T11:57:24.975Z,2.65
2018-02-13T11:59:52.532Z,2.83
2018-02-13T12:02:20.066Z,3.28
2018-02-13T12:04:47.569Z,3.28
2018-02-13T12:07:15.077Z,2.22
2018-02-13T12:09:42.603Z,1.90
2018-02-13T12:12:10.091Z,3.20
2018-02-13T12:14:37.925Z,3.45
2018-02-13T12:17:05.416Z,2.50
2018-02-13T12:19:32.935Z,2.40
2018-02-13T12:22:00.434Z,2.45
2018-02-13T12:24:27.971Z,2.28
2018-02-13T12:26:55.463Z,1.65
2018-02-13T12:29:22.982Z,2.78
2018-02-13T12:31:50.484Z,1.92
2018-02-13T12:34:18.017Z,1.90
2018-02-13T12:36:45.555Z,1.20
2018-02-13T12:39:13.039Z,1.27
2018-02-13T12:41:40.533Z,2.17
2018-02-13T12:44:08.037Z,2.15
2018-02-13T12:46:35.554Z,2.03
2018-02-13T12:49:03.050Z,2.22
2018-02-13T12:51:30.545Z,4.85
2018-02-13T12:56:32.135Z,2.40
2018-02-13T12:58:59.638Z,2.08
2018-02-13T13:01:27.135Z,2.30
2018-02-13T13:03:55.096Z,1.90
2018-02-13T13:06:22.784Z,1.70
2018-02-13T13:08:50.288Z,2.35
2018-02-13T13:11:17.784Z,2.20
2018-02-13T13:13:45.303Z,2.08
2018-02-13T13:16:12.796Z,3.12
2018-02-13T13:18:40.316Z,2.78
2018-02-13T13:21:07.818Z,3.92
2018-02-13T13:23:35.318Z,2.05
2018-02-13T13:26:03.805Z,3.50
2018-02-13T13:28:31.290Z,3.83
2018-02-13T13:30:58.794Z,3.47
2018-02-13T13:33:26.287Z,2.60
2018-02-13T13:35:53.764Z,2.40
2018-02-13T13:38:21.290Z,2.50
2018-02-13T13:40:48.907Z,2.27
2018-02-13T13:43:16.477Z,3.33
2018-02-13T13:45:43.971Z,3.58
2018-02-13T13:48:11.484Z,3.37
2018-02-13T13:50:38.980Z,3.05
2018-02-13T13:53:06.459Z,2.53
2018-02-13T13:55:35.178Z,3.12
2018-02-13T13:58:02.692Z,2.10
2018-02-13T14:00:30.182Z,2.78
2018-02-13T14:02:57.703Z,2.62
2018-02-13T14:05:25.255Z,2.30
2018-02-13T14:07:52.775Z,2.25
2018-02-13T14:10:20.276Z,2.12
2018-02-13T14:12:47.792Z,2.55
2018-02-13T14:15:15.293Z,1.33
2018-02-13T14:17:42.808Z,2.62
2018-02-13T14:20:10.310Z,2.37
2018-02-13T14:22:37.862Z,2.30
2018-02-13T14:25:05.367Z,3.10
2018-02-13T14:27:32.924Z,2.90
2018-02-13T14:30:00.462Z,2.08
2018-02-13T14:32:27.961Z,3.03
2018-02-13T14:34:55.503Z,2.60
2018-02-13T14:37:24.161Z,2.15
2018-02-13T14:39:51.732Z,2.15
2018-02-13T14:42:19.277Z,2.15
2018-02-13T14:44:46.821Z,1.80
2018-02-13T14:47:14.369Z,2.45
2018-02-13T14:49:41.977Z,2.55
2018-02-13T14:52:09.508Z,1.85
2018-02-13T14:54:37.005Z,2.00
2018-02-13T14:57:04.548Z,1.87
2018-02-13T14:59:32.038Z,2.80
2018-02-13T15:01:59.581Z,2.30
2018-02-13T15:04:27.096Z,2.28
2018-02-13T15:06:54.656Z,1.40
2018-02-13T15:09:22.119Z,1.48
2018-02-13T15:11:49.607Z,2.65
2018-02-13T15:14:17.948Z,2.17
2018-02-13T15:16:47.275Z,1.65
2018-02-13T15:19:14.799Z,2.20
2018-02-13T15:21:42.286Z,1.90
2018-02-13T15:24:09.803Z,2.72
2018-02-13T15:26:37.276Z,1.33
2018-02-13T15:29:04.796Z,2.10
2018-02-13T15:31:33.197Z,2.10
2018-02-13T15:34:00.696Z,2.15
2018-02-13T15:36:28.195Z,1.40
2018-02-13T15:38:55.792Z,2.70
2018-02-13T15:41:23.282Z,2.33
2018-02-13T15:43:50.766Z,2.25
2018-02-13T15:46:18.278Z,2.20
2018-02-13T15:48:45.787Z,2.72
2018-02-13T15:51:13.288Z,2.45
2018-02-13T15:53:41.568Z,3.42
2018-02-13T15:56:09.062Z,2.03
2018-02-13T15:58:36.608Z,1.73
2018-02-13T16:01:04.116Z,2.25
2018-02-13T16:03:31.606Z,2.37
2018-02-13T16:05:59.115Z,2.17
2018-02-13T16:08:26.613Z,2.45
2018-02-13T16:10:54.132Z,2.85
2018-02-13T16:13:21.621Z,1.87
2018-02-13T16:15:49.123Z,2.10
2018-02-13T16:18:16.578Z,2.28
2018-02-13T16:20:44.286Z,2.05
2018-02-13T16:23:11.779Z,1.42
2018-02-13T16:25:39.946Z,2.00
2018-02-13T16:28:07.438Z,2.12
2018-02-13T16:30:34.932Z,2.30
2018-02-13T16:33:02.436Z,2.28
2018-02-13T16:35:29.965Z,1.80
2018-02-13T16:37:57.455Z,2.40
2018-02-13T16:40:25.004Z,1.77
2018-02-13T16:42:52.606Z,2.30
2018-02-13T16:45:20.114Z,2.20
2018-02-13T16:47:47.602Z,3.08
2018-02-13T16:50:15.170Z,3.05
2018-02-13T16:52:42.689Z,2.35
2018-02-13T16:55:10.183Z,2.65
2018-02-13T16:57:37.702Z,2.78
2018-02-13T17:00:05.197Z,2.72
2018-02-13T17:02:32.720Z,3.15
2018-02-13T17:05:00.219Z,2.30
2018-02-13T17:07:27.744Z,2.72
2018-02-13T17:09:55.232Z,2.70
2018-02-13T17:12:22.757Z,3.75
2018-02-13T17:14:50.251Z,4.85
2018-02-13T17:17:17.740Z,4.00
2018-02-13T17:19:45.243Z,3.53
2018-02-13T17:22:12.759Z,2.92
2018-02-13T17:24:40.263Z,3.00
2018-02-13T17:27:07.770Z,4.05
2018-02-13T17:29:35.271Z,3.30
2018-02-13T17:32:02.774Z,3.28
2018-02-13T17:34:30.287Z,3.03
2018-02-13T17:36:57.794Z,3.17
2018-02-13T17:39:25.315Z,3.25
2018-02-13T17:41:52.807Z,2.80
2018-02-13T17:44:20.324Z,2.67
2018-02-13T17:46:47.803Z,2.75
2018-02-13T17:49:15.279Z,2.50
2018-02-13T17:51:42.778Z,2.60
2018-02-13T17:54:10.257Z,2.12
2018-02-13T17:56:37.736Z,2.33
2018-02-13T17:59:05.290Z,3.72
2018-02-13T18:01:32.790Z,5.30
2018-02-13T18:04:00.288Z,8.55
2018-02-13T18:06:27.788Z,11.10
2018-02-13T18:08:55.279Z,7.80
2018-02-13T18:11:22.768Z,6.25
2018-02-13T18:13:50.248Z,4.60
2018-02-13T18:16:17.752Z,4.32
2018-02-13T18:18:45.501Z,5.65
2018-02-13T18:21:13.107Z,5.50
2018-02-13T18:23:40.625Z,9.95
2018-02-13T18:26:08.127Z,5.87
2018-02-13T18:28:35.619Z,7.25
2018-02-13T18:31:03.109Z,8.27
2018-02-13T18:33:30.619Z,8.70
2018-02-13T18:35:58.126Z,7.90
2018-02-13T18:38:26.341Z,7.53
2018-02-13T18:40:53.995Z,6.53
2018-02-13T18:43:21.470Z,5.85
2018-02-13T18:45:48.995Z,6.28
2018-02-13T18:48:16.561Z,6.70
2018-02-13T18:50:44.087Z,7.15
2018-02-13T18:55:39.157Z,6.12
2018-02-13T18:58:06.681Z,7.07
2018-02-13T19:00:34.259Z,7.43
2018-02-13T19:03:02.060Z,7.10
2018-02-13T19:05:30.136Z,7.40
2018-02-13T19:07:59.801Z,7.20
2018-02-13T19:10:27.481Z,7.03
2018-02-13T19:12:54.991Z,8.90
2018-02-13T19:15:22.517Z,9.20
2018-02-13T19:17:50.054Z,8.20
2018-02-13T19:20:17.543Z,7.65
2018-02-13T19:22:45.042Z,10.38
2018-02-13T19:25:12.558Z,10.60
2018-02-13T19:27:40.042Z,9.10
2018-02-13T19:30:07.632Z,9.50
2018-02-13T19:32:35.122Z,8.75
2018-02-13T19:35:02.644Z,8.90
2018-02-13T19:37:30.139Z,7.72
2018-02-13T19:39:57.635Z,7.45
2018-02-13T19:42:25.147Z,8.25
2018-02-13T19:44:52.708Z,8.68
2018-02-13T19:47:20.236Z,9.95
2018-02-13T19:49:47.718Z,8.57
2018-02-13T19:52:15.187Z,10.07
2018-02-13T19:54:42.698Z,9.93
2018-02-13T19:57:10.223Z,10.32
2018-02-13T19:59:37.754Z,10.27
2018-02-13T20:02:05.254Z,8.43
2018-02-13T20:04:32.820Z,9.93
2018-02-13T20:07:01.090Z,35.38
2018-02-13T20:09:28.602Z,21.80
2018-02-13T20:11:56.108Z,14.45
2018-02-13T20:14:23.697Z,20.02
2018-02-13T20:16:51.364Z,13.30
2018-02-13T20:19:18.866Z,9.77
2018-02-13T20:21:46.370Z,9.25
2018-02-13T20:24:13.919Z,5.68
2018-02-13T20:26:41.527Z,5.15
2018-02-13T20:29:09.008Z,5.45
2018-02-13T20:31:36.512Z,6.55
2018-02-13T20:34:04.035Z,7.90
2018-02-13T20:36:31.520Z,7.37
2018-02-13T20:38:59.056Z,7.78
2018-02-13T20:41:26.615Z,6.97
2018-02-13T20:43:54.081Z,8.30
2018-02-13T20:46:21.655Z,8.27
2018-02-13T20:48:49.189Z,12.77
2018-02-13T20:51:16.687Z,15.55
2018-02-13T20:53:44.171Z,12.43
2018-02-13T20:56:11.694Z,14.07
2018-02-13T20:58:39.184Z,8.15
2018-02-13T21:01:06.702Z,7.78
2018-02-13T21:03:34.178Z,6.97
2018-02-13T21:06:01.674Z,8.15
2018-02-13T21:08:29.174Z,9.40
2018-02-13T21:10:56.678Z,12.35
2018-02-13T21:13:24.177Z,6.65
2018-02-13T21:15:51.692Z,6.65
2018-02-13T21:18:19.181Z,6.28
2018-02-13T21:20:46.685Z,6.40
2018-02-13T21:23:14.179Z,6.70
2018-02-13T21:25:41.679Z,6.20
2018-02-13T21:28:09.169Z,6.43
2018-02-13T21:30:36.683Z,6.10
2018-02-13T21:33:04.172Z,5.30
2018-02-13T21:35:31.674Z,5.28
2018-02-13T21:37:59.201Z,5.00
2018-02-13T21:40:26.716Z,4.40
2018-02-13T21:42:54.220Z,5.65
2018-02-13T21:45:21.732Z,6.25
2018-02-13T21:47:49.229Z,9.23
2018-02-13T21:50:16.784Z,11.15
2018-02-13T21:52:44.269Z,7.47
2018-02-13T21:55:11.743Z,6.75
2018-02-13T21:57:39.251Z,6.40
2018-02-13T22:00:06.777Z,5.95
2018-02-13T22:02:34.280Z,5.80
2018-02-13T22:05:01.767Z,5.37
2018-02-13T22:07:29.246Z,6.53
2018-02-13T22:09:56.742Z,5.70
2018-02-13T22:12:24.230Z,5.45
2018-02-13T22:14:51.757Z,4.82
2018-02-13T22:17:19.252Z,5.43
2018-02-13T22:19:46.747Z,4.82
2018-02-13T22:22:14.247Z,5.90
2018-02-13T22:24:41.757Z,5.90
2018-02-13T22:27:09.250Z,5.65
2018-02-13T22:29:36.802Z,4.72
2018-02-13T22:32:04.272Z,5.57
2018-02-13T22:34:31.807Z,5.78
2018-02-13T22:36:59.319Z,4.37
2018-02-13T22:39:26.809Z,4.93
2018-02-13T22:41:54.306Z,4.62
2018-02-13T22:44:21.784Z,4.03
2018-02-13T22:46:49.280Z,4.72
2018-02-13T22:49:16.763Z,4.05
2018-02-13T22:51:44.276Z,4.40
2018-02-13T22:54:11.779Z,5.60
2018-02-13T22:56:39.263Z,3.67
2018-02-13T22:59:06.753Z,4.55
2018-02-13T23:01:34.252Z,3.80
2018-02-13T23:04:01.735Z,4.18
2018-02-13T23:06:29.244Z,3.92
2018-02-13T23:08:56.734Z,4.30
2018-02-13T23:11:24.246Z,4.22
2018-02-13T23:13:51.734Z,3.70
2018-02-13T23:16:19.210Z,4.10
2018-02-13T23:18:46.695Z,3.97
2018-02-13T23:21:14.184Z,4.30
2018-02-13T23:23:41.679Z,4.18
2018-02-13T23:26:09.155Z,4.82
2018-02-13T23:28:36.648Z,3.67
2018-02-13T23:31:04.139Z,4.22
2018-02-13T23:33:31.631Z,4.12
2018-02-13T23:35:59.150Z,4.03
2018-02-13T23:38:26.632Z,3.50
2018-02-13T23:40:54.124Z,3.85
2018-02-13T23:43:21.620Z,3.80
2018-02-13T23:45:49.170Z,3.80
2018-02-13T23:48:16.654Z,3.42
2018-02-13T23:50:44.152Z,3.50
2018-02-13T23:53:11.626Z,3.78
2018-02-13T23:55:39.119Z,3.47
2018-02-13T23:58:06.607Z,3.25
